Time;durP1;ratioP1;P1;durP2;ratioP2;P2;SDS_P1;SDS_P2;PMS_P1;PMS_P2;Temp;Humidity;BMP_temperature;BMP_pressure;BME280_temperature;BME280_humidity;BME280_pressure;Samples;Min_cycle;Max_cycle;Signal;HPM_P1;HPM_P2
2022/10/25 00:00:51;;;;;;;45.33;13.43;;;;;;;9.40;100.00;99071.09;5174100;27;20042;-53
2022/10/25 00:03:18;;;;;;;61.47;12.68;;;;;;;9.38;100.00;99079.63;5173890;27;20141;-53
2022/10/25 00:05:44;;;;;;;40.65;13.23;;;;;;;9.50;100.00;99075.19;5174123;27;20510;-53
2022/10/25 00:08:11;;;;;;;66.05;12.07;;;;;;;9.33;100.00;99074.47;5173680;27;20042;-52
2022/10/25 00:10:37;;;;;;;46.03;12.95;;;;;;;9.20;100.00;99075.75;5173850;27;20505;-52
2022/10/25 00:13:04;;;;;;;42.85;13.18;;;;;;;9.21;100.00;99058.16;5173646;27;20092;-50
2022/10/25 00:15:31;;;;;;;48.28;12.68;;;;;;;9.20;100.00;99059.31;5174035;27;20133;-53
2022/10/25 00:17:57;;;;;;;48.97;12.32;;;;;;;9.27;100.00;99048.53;5173710;27;20046;-53
2022/10/25 00:20:23;;;;;;;54.90;12.75;;;;;;;9.25;100.00;99042.63;5173626;27;20056;-53
2022/10/25 00:22:49;;;;;;;57.20;13.02;;;;;;;9.21;100.00;99032.75;5173967;27;20050;-52
2022/10/25 00:25:17;;;;;;;77.43;12.75;;;;;;;9.18;100.00;99026.06;5173767;27;20041;-50
2022/10/25 00:27:43;;;;;;;45.80;12.40;;;;;;;9.27;100.00;99015.72;5173126;27;20050;-51
2022/10/25 00:30:11;;;;;;;66.32;13.82;;;;;;;9.24;100.00;99023.84;5173626;27;20489;-50
2022/10/25 00:32:37;;;;;;;87.68;14.18;;;;;;;9.38;100.00;99013.97;5173700;27;20583;-50
2022/10/25 00:35:04;;;;;;;65.28;12.32;;;;;;;9.47;100.00;99037.59;5173661;27;20705;-53
2022/10/25 00:37:30;;;;;;;40.75;12.88;;;;;;;9.02;100.00;99042.50;5173759;27;20438;-50
2022/10/25 00:39:57;;;;;;;41.05;11.40;;;;;;;9.42;100.00;99030.47;5173401;27;20429;-52
2022/10/25 00:42:25;;;;;;;72.03;13.95;;;;;;;9.56;100.00;99038.16;5173693;27;20046;-50
2022/10/25 00:44:54;;;;;;;46.00;11.00;;;;;;;9.27;100.00;99048.53;5173436;27;20628;-50
2022/10/25 00:47:47;;;;;;;98.80;13.25;;;;;;;9.33;100.00;99049.84;5173262;27;20050;-50
2022/10/25 00:50:32;;;;;;;77.95;11.73;;;;;;;9.36;100.00;99040.91;5173277;27;20505;-50
2022/10/25 00:53:02;;;;;;;113.32;12.93;;;;;;;9.37;100.00;99034.28;5172973;27;20069;-53
2022/10/25 00:55:29;;;;;;;80.82;12.23;;;;;;;9.40;100.00;99040.97;5173355;27;20042;-50
2022/10/25 00:58:00;;;;;;;69.63;11.75;;;;;;;9.10;100.00;99016.13;5172897;27;20046;-52
2022/10/25 01:00:26;;;;;;;118.60;12.27;;;;;;;9.31;100.00;99013.84;5173099;27;20093;-54
2022/10/25 01:02:53;;;;;;;76.05;11.15;;;;;;;8.92;100.00;98997.38;5172870;27;20425;-50
2022/10/25 01:05:20;;;;;;;85.28;12.85;;;;;;;8.85;100.00;98966.38;5172871;27;20544;-52
2022/10/25 01:07:46;;;;;;;175.95;14.30;;;;;;;8.93;100.00;98936.09;5172851;27;20049;-55
2022/10/25 01:10:13;;;;;;;186.52;13.90;;;;;;;8.97;100.00;98918.97;5172657;27;20057;-51
2022/10/25 01:12:39;;;;;;;147.25;11.55;;;;;;;8.88;100.00;98914.50;5172965;27;20046;-50
2022/10/25 01:15:07;;;;;;;153.90;12.10;;;;;;;9.09;100.00;98907.88;5172817;27;20546;-52
2022/10/25 01:17:44;;;;;;;182.02;11.98;;;;;;;9.11;100.00;98908.31;5172962;27;20050;-50
2022/10/25 01:20:55;;;;;;;104.60;10.48;;;;;;;8.99;100.00;98914.72;5172610;27;20073;-53
2022/10/25 01:23:51;;;;;;;184.20;11.23;;;;;;;8.82;100.00;98926.09;5172882;27;20054;-50
2022/10/25 01:26:50;;;;;;;74.07;9.60;;;;;;;8.88;100.00;98908.25;5172544;27;20048;-52
2022/10/25 01:29:41;;;;;;;76.32;12.65;;;;;;;8.86;100.00;98916.81;5172418;27;20496;-49
2022/10/25 01:32:14;;;;;;;63.90;10.18;;;;;;;8.80;100.00;98906.53;5172543;27;20046;-50
2022/10/25 01:34:46;;;;;;;39.30;9.43;;;;;;;9.27;100.00;98902.75;5172374;27;20054;-51
2022/10/25 01:37:22;;;;;;;50.28;10.32;;;;;;;9.50;100.00;98914.53;5172375;27;20054;-52
2022/10/25 01:39:56;;;;;;;75.03;9.43;;;;;;;9.58;100.00;98934.59;5171780;27;20888;-50
2022/10/25 01:42:32;;;;;;;31.05;10.30;;;;;;;9.46;100.00;98943.75;5172200;27;20054;-52
2022/10/25 01:45:07;;;;;;;27.13;9.38;;;;;;;9.56;100.00;98961.53;5172266;27;20138;-50
2022/10/25 01:47:39;;;;;;;39.05;9.18;;;;;;;9.51;100.00;98959.09;5172335;27;20046;-51
2022/10/25 01:50:10;;;;;;;30.25;8.60;;;;;;;9.48;100.00;98968.81;5172449;27;20053;-50
2022/10/25 01:52:36;;;;;;;29.50;8.77;;;;;;;9.30;100.00;98965.75;5172159;27;20137;-51
2022/10/25 01:55:07;;;;;;;68.55;10.07;;;;;;;9.26;100.00;98967.59;5172285;27;20047;-53
2022/10/25 01:57:52;;;;;;;90.43;10.07;;;;;;;9.41;100.00;98971.44;5172180;27;20083;-50
2022/10/25 02:00:19;;;;;;;33.38;9.55;;;;;;;9.66;100.00;98980.09;5172305;27;20057;-54
2022/10/25 02:03:07;;;;;;;48.90;8.57;;;;;;;9.30;100.00;98978.63;5172165;27;20083;-50
2022/10/25 02:05:41;;;;;;;23.08;7.72;;;;;;;9.00;100.00;98970.19;5172119;27;20050;-53
2022/10/25 02:08:17;;;;;;;61.17;8.63;;;;;;;9.14;100.00;98952.16;5172395;27;20050;-53
2022/10/25 02:10:50;;;;;;;22.08;8.63;;;;;;;9.62;100.00;98954.59;5172121;27;20050;-52
2022/10/25 02:13:26;;;;;;;30.60;9.07;;;;;;;9.38;100.00;98964.72;5171789;27;20117;-50
2022/10/25 02:15:58;;;;;;;94.70;10.02;;;;;;;9.17;100.00;98973.31;5172397;27;20042;-53
2022/10/25 02:18:29;;;;;;;37.40;9.05;;;;;;;9.09;100.00;98957.09;5171872;27;20050;-50
2022/10/25 02:20:58;;;;;;;45.67;8.77;;;;;;;9.33;100.00;98958.75;5172159;27;20118;-52
2022/10/25 02:23:25;;;;;;;60.22;8.68;;;;;;;9.11;100.00;98958.34;5171739;27;20054;-50
2022/10/25 02:25:53;;;;;;;49.00;8.70;;;;;;;9.12;100.00;98956.38;5171844;27;20098;-51
2022/10/25 02:28:23;;;;;;;28.38;9.07;;;;;;;8.98;100.00;98953.38;5171763;27;20043;-50
2022/10/25 02:30:52;;;;;;;35.08;8.38;;;;;;;9.22;100.00;98936.66;5171546;27;20458;-50
2022/10/25 02:33:18;;;;;;;19.35;8.63;;;;;;;9.29;100.00;98936.00;5171822;27;20042;-50
2022/10/25 02:36:04;;;;;;;40.50;9.82;;;;;;;9.23;100.00;98934.72;5171838;27;20456;-50
2022/10/25 02:38:30;;;;;;;57.50;9.43;;;;;;;9.31;100.00;98934.50;5171918;27;20050;-53
2022/10/25 02:40:59;;;;;;;35.88;9.57;;;;;;;9.25;100.00;98938.66;5171933;27;20145;-54
2022/10/25 02:43:25;;;;;;;62.13;9.27;;;;;;;9.29;100.00;98936.00;5171755;27;20421;-52
2022/10/25 02:45:51;;;;;;;86.28;10.50;;;;;;;9.36;100.00;98939.69;5171480;27;20053;-53
2022/10/25 02:48:18;;;;;;;22.10;9.25;;;;;;;9.12;100.00;98943.50;5171696;27;20057;-51
2022/10/25 02:50:44;;;;;;;37.28;8.82;;;;;;;9.51;100.00;98942.69;5173467;27;20050;-52
2022/10/25 02:53:11;;;;;;;34.70;8.43;;;;;;;9.29;100.00;98946.94;5175058;27;20057;-51
2022/10/25 02:55:37;;;;;;;35.95;9.13;;;;;;;9.36;100.00;98945.16;5174968;27;20535;-54
2022/10/25 02:58:03;;;;;;;51.72;9.10;;;;;;;9.41;100.00;98944.84;5174902;27;20053;-50
2022/10/25 03:00:30;;;;;;;32.28;9.32;;;;;;;9.53;100.00;98954.03;5174945;27;20047;-50
2022/10/25 03:02:56;;;;;;;21.33;9.07;;;;;;;9.74;100.00;98954.44;5174960;27;20063;-50
2022/10/25 03:05:22;;;;;;;25.75;9.68;;;;;;;9.71;100.00;98963.38;5175088;27;20081;-51
2022/10/25 03:07:48;;;;;;;96.28;10.68;;;;;;;9.49;100.00;98978.59;5174806;27;20082;-50
2022/10/25 03:10:16;;;;;;;84.45;10.63;;;;;;;9.54;100.00;98972.84;5175120;27;20462;-52
2022/10/25 03:12:42;;;;;;;29.60;9.48;;;;;;;9.81;100.00;98970.19;5174869;27;20054;-51
2022/10/25 03:15:09;;;;;;;36.92;8.98;;;;;;;9.43;100.00;98983.59;5174776;27;20143;-51
2022/10/25 03:17:35;;;;;;;43.38;9.38;;;;;;;9.78;100.00;98979.94;5174572;27;20076;-50
2022/10/25 03:20:01;;;;;;;26.45;9.70;;;;;;;9.82;100.00;98993.69;5174773;27;20078;-54
2022/10/25 03:22:28;;;;;;;30.83;9.32;;;;;;;9.93;100.00;99000.16;5174579;27;20050;-54
2022/10/25 03:24:54;;;;;;;54.67;10.02;;;;;;;9.83;100.00;99004.28;5174407;27;20050;-54
2022/10/25 03:27:21;;;;;;;135.32;10.18;;;;;;;9.75;100.00;99018.97;5174810;27;20050;-54
2022/10/25 03:29:47;;;;;;;31.15;8.75;;;;;;;9.57;100.00;99015.13;5174455;27;20057;-55
2022/10/25 03:32:13;;;;;;;48.25;9.65;;;;;;;9.30;100.00;98995.84;5174541;27;20058;-53
2022/10/25 03:34:39;;;;;;;58.45;8.38;;;;;;;9.58;100.00;98976.44;5174470;27;20050;-54
2022/10/25 03:37:05;;;;;;;83.05;9.52;;;;;;;9.42;100.00;98964.78;5174599;27;20049;-54
2022/10/25 03:39:32;;;;;;;114.43;11.05;;;;;;;9.42;100.00;98962.06;5174353;27;20046;-54
2022/10/25 03:41:58;;;;;;;45.30;8.30;;;;;;;9.57;100.00;98949.44;5174828;27;20331;-51
2022/10/25 03:44:25;;;;;;;50.80;9.55;;;;;;;9.62;100.00;98960.09;5174586;27;20158;-54
2022/10/25 03:46:51;;;;;;;40.05;9.07;;;;;;;9.49;100.00;98955.91;5174675;27;20060;-52
2022/10/25 03:49:18;;;;;;;88.15;9.27;;;;;;;9.65;100.00;98957.41;5174560;27;20133;-50
2022/10/25 03:51:44;;;;;;;29.52;8.68;;;;;;;9.65;100.00;98964.81;5174149;27;20528;-54
2022/10/25 03:54:10;;;;;;;61.92;9.00;;;;;;;9.33;100.00;98973.25;5174335;27;20054;-51
2022/10/25 03:56:36;;;;;;;70.63;9.40;;;;;;;9.43;100.00;98972.66;5174287;27;20046;-52
2022/10/25 03:59:02;;;;;;;68.88;10.30;;;;;;;9.66;100.00;98958.19;5174376;27;20054;-52
2022/10/25 04:01:29;;;;;;;26.73;8.90;;;;;;;9.27;100.00;98952.78;5172845;27;20497;-53
2022/10/25 04:03:55;;;;;;;66.00;10.43;;;;;;;9.67;100.00;98951.59;5174193;27;20053;-53
2022/10/25 04:06:22;;;;;;;70.75;10.25;;;;;;;9.82;100.00;98958.09;5173767;27;20137;-53
2022/10/25 04:08:48;;;;;;;42.95;10.20;;;;;;;9.90;100.00;98970.75;5174095;27;20197;-53
2022/10/25 04:11:14;;;;;;;95.45;10.65;;;;;;;9.76;100.00;98987.69;5173800;27;20042;-50
2022/10/25 04:13:40;;;;;;;25.35;9.70;;;;;;;9.90;100.00;98989.94;5174007;27;20098;-52
2022/10/25 04:16:08;;;;;;;21.48;9.88;;;;;;;9.90;100.00;98987.19;5173753;27;20050;-54
2022/10/25 04:18:35;;;;;;;41.55;9.73;;;;;;;10.06;100.00;98987.88;5173766;27;20042;-53
2022/10/25 04:21:01;;;;;;;48.92;9.10;;;;;;;9.95;100.00;98991.56;5173611;27;20505;-54
2022/10/25 04:23:28;;;;;;;39.38;9.38;;;;;;;10.06;100.00;98987.03;5173414;27;20509;-51
2022/10/25 04:25:55;;;;;;;56.97;10.50;;;;;;;9.92;100.00;99003.25;5173919;27;20058;-51
2022/10/25 04:28:22;;;;;;;69.22;9.65;;;;;;;9.58;100.00;98995.59;5173446;27;20050;-53
2022/10/25 04:30:48;;;;;;;57.80;12.20;;;;;;;9.62;100.00;98971.81;5173550;27;20421;-53
2022/10/25 04:33:14;;;;;;;46.88;10.82;;;;;;;9.45;100.00;98958.59;5173389;27;20141;-50
2022/10/25 04:35:41;;;;;;;52.13;10.45;;;;;;;9.52;100.00;98938.78;5173428;27;20049;-50
2022/10/25 04:38:08;;;;;;;42.15;10.43;;;;;;;9.47;100.00;98934.41;5173398;27;20520;-52
2022/10/25 04:40:34;;;;;;;48.00;10.25;;;;;;;9.42;100.00;98923.75;5173320;27;20048;-50
2022/10/25 04:43:01;;;;;;;35.53;11.13;;;;;;;9.35;100.00;98918.16;5173375;27;20060;-51
2022/10/25 04:45:27;;;;;;;54.55;11.23;;;;;;;9.59;100.00;98911.53;5173157;27;20062;-53
2022/10/25 04:47:53;;;;;;;56.15;11.43;;;;;;;9.55;100.00;98907.97;5173174;27;20050;-53
2022/10/25 04:50:20;;;;;;;33.17;10.40;;;;;;;9.38;100.00;98918.22;5172871;27;20077;-62
2022/10/25 04:52:46;;;;;;;47.22;9.65;;;;;;;9.78;100.00;98908.75;5173247;27;20394;-62
2022/10/25 04:55:13;;;;;;;48.55;10.80;;;;;;;9.50;100.00;98913.75;5173171;27;20057;-62
2022/10/25 04:57:39;;;;;;;30.95;11.02;;;;;;;9.89;100.00;98917.13;5173097;27;20134;-64
2022/10/25 05:00:06;;;;;;;44.63;10.45;;;;;;;9.48;100.00;98937.94;5173079;27;20056;-63
2022/10/25 05:02:32;;;;;;;71.72;10.15;;;;;;;9.82;100.00;98931.50;5173043;27;20046;-63
2022/10/25 05:04:58;;;;;;;67.35;11.38;;;;;;;9.78;100.00;98949.81;5172871;27;20046;-63
2022/10/25 05:07:25;;;;;;;64.75;11.27;;;;;;;9.62;100.00;98940.91;5172899;27;20054;-62
2022/10/25 05:09:51;;;;;;;50.55;9.27;;;;;;;9.62;100.00;98938.97;5172753;27;20046;-63
2022/10/25 05:12:18;;;;;;;33.78;11.07;;;;;;;9.61;100.00;98936.59;5172681;27;20050;-63
2022/10/25 05:14:44;;;;;;;29.40;9.82;;;;;;;9.99;100.00;98934.91;5172600;27;20046;-64
2022/10/25 05:17:10;;;;;;;30.38;10.52;;;;;;;10.14;100.00;98940.25;5172828;27;20043;-65
2022/10/25 05:19:36;;;;;;;59.92;11.77;;;;;;;10.02;100.00;98961.56;5172860;27;20551;-59
2022/10/25 05:22:03;;;;;;;65.38;11.57;;;;;;;10.01;100.00;98962.72;5172597;27;20054;-59
2022/10/25 05:24:29;;;;;;;65.47;11.40;;;;;;;9.89;100.00;98966.41;5172919;27;20132;-54
2022/10/25 05:26:56;;;;;;;32.08;11.25;;;;;;;9.98;100.00;98966.97;5172300;27;20050;-59
2022/10/25 05:29:22;;;;;;;82.57;10.50;;;;;;;10.17;100.00;98979.03;5172647;27;20050;-58
2022/10/25 05:31:48;;;;;;;26.95;10.73;;;;;;;10.29;100.00;98998.81;5172332;27;20042;-58
2022/10/25 05:34:15;;;;;;;21.10;9.95;;;;;;;10.35;100.00;99013.78;5172564;27;20413;-61
2022/10/25 05:36:41;;;;;;;37.75;10.13;;;;;;;10.40;100.00;99028.38;5172565;27;20046;-62
2022/10/25 05:39:07;;;;;;;36.63;9.95;;;;;;;10.40;100.00;99047.56;5172554;27;20050;-64
2022/10/25 05:41:33;;;;;;;27.30;10.05;;;;;;;10.27;100.00;99055.16;5172468;27;20493;-60
2022/10/25 05:44:00;;;;;;;31.27;9.40;;;;;;;10.30;100.00;99043.47;5172251;27;20413;-62
2022/10/25 05:46:27;;;;;;;53.92;10.48;;;;;;;10.13;100.00;99047.47;5172711;27;20054;-62
2022/10/25 05:48:54;;;;;;;42.95;8.77;;;;;;;10.35;100.00;99049.41;5172319;27;20050;-62
2022/10/25 05:51:22;;;;;;;50.05;10.35;;;;;;;10.33;100.00;99056.44;5172301;27;20486;-60
2022/10/25 05:53:50;;;;;;;29.83;9.77;;;;;;;9.92;100.00;99058.00;5172143;27;20140;-61
2022/10/25 05:56:16;;;;;;;33.22;9.38;;;;;;;10.14;100.00;99027.13;5172095;27;20453;-62
2022/10/25 05:58:43;;;;;;;42.45;9.15;;;;;;;9.86;100.00;99030.13;5172311;27;20049;-62
2022/10/25 06:01:12;;;;;;;62.58;10.52;;;;;;;10.08;100.00;99021.16;5171947;27;20138;-61
2022/10/25 06:03:38;;;;;;;59.75;10.57;;;;;;;9.99;100.00;99023.31;5172243;27;20067;-62
2022/10/25 06:06:06;;;;;;;33.20;9.43;;;;;;;9.78;100.00;99022.94;5171913;27;20094;-62
2022/10/25 06:08:33;;;;;;;21.17;9.20;;;;;;;10.19;100.00;98996.66;5172131;27;20058;-57
2022/10/25 06:11:01;;;;;;;32.03;8.95;;;;;;;9.95;100.00;98999.78;5171815;27;20141;-65
2022/10/25 06:13:27;;;;;;;33.80;9.60;;;;;;;10.31;100.00;98993.78;5171655;27;20501;-63
2022/10/25 06:15:54;;;;;;;71.93;9.70;;;;;;;10.25;100.00;99003.41;5171779;27;20050;-64
2022/10/25 06:18:20;;;;;;;42.67;10.75;;;;;;;10.21;100.00;99004.53;5172040;27;20058;-62
2022/10/25 06:20:47;;;;;;;48.92;9.57;;;;;;;10.05;100.00;99001.91;5171953;27;20054;-61
2022/10/25 06:23:13;;;;;;;27.42;9.35;;;;;;;9.98;100.00;98996.31;5171680;27;20050;-62
2022/10/25 06:25:39;;;;;;;44.92;10.43;;;;;;;9.94;100.00;98992.72;5173743;27;20050;-63
2022/10/25 06:28:08;;;;;;;26.88;10.38;;;;;;;9.89;100.00;98980.91;5174916;27;20497;-62
2022/10/25 06:30:34;;;;;;;85.95;11.73;;;;;;;9.99;100.00;98979.50;5174868;27;20066;-61
2022/10/25 06:33:00;;;;;;;36.60;13.18;;;;;;;10.32;100.00;98967.94;5174699;27;20051;-61
2022/10/25 06:35:28;;;;;;;29.52;10.85;;;;;;;10.28;100.00;98983.53;5174743;27;20046;-61
2022/10/25 06:37:58;;;;;;;42.10;11.63;;;;;;;10.18;100.00;98986.88;5174505;27;20046;-67
2022/10/25 06:40:24;;;;;;;27.02;12.30;;;;;;;10.44;100.00;98988.88;5174681;27;20073;-67
2022/10/25 06:42:53;;;;;;;65.57;12.73;;;;;;;10.22;100.00;98995.16;5174302;27;20527;-61
2022/10/25 06:45:19;;;;;;;47.58;11.00;;;;;;;10.11;100.00;98998.50;5174351;27;20057;-63
2022/10/25 06:47:45;;;;;;;42.13;12.30;;;;;;;10.07;100.00;98999.59;5174486;27;20054;-65
2022/10/25 06:50:12;;;;;;;36.47;12.02;;;;;;;10.33;100.00;98980.50;5174502;27;20547;-63
2022/10/25 06:52:39;;;;;;;96.35;12.35;;;;;;;10.37;100.00;98991.53;5174494;27;20050;-60
2022/10/25 06:55:05;;;;;;;42.92;11.80;;;;;;;10.40;100.00;98998.22;5174284;27;20073;-61
2022/10/25 06:57:32;;;;;;;41.00;11.25;;;;;;;10.24;100.00;98990.88;5174487;27;20221;-64
2022/10/25 06:59:59;;;;;;;47.50;12.55;;;;;;;10.41;100.00;98980.63;5174161;27;20493;-64
2022/10/25 07:02:26;;;;;;;66.03;13.10;;;;;;;10.69;100.00;98988.47;5174484;27;20508;-64
2022/10/25 07:04:54;;;;;;;34.53;14.82;;;;;;;10.70;100.00;99007.28;5171237;27;20464;-65
2022/10/25 07:07:20;;;;;;;40.63;13.27;;;;;;;10.87;100.00;99016.94;5174273;27;20142;-63
2022/10/25 07:09:47;;;;;;;34.50;12.02;;;;;;;10.53;100.00;99048.91;5173300;27;20496;-61
2022/10/25 07:12:13;;;;;;;38.65;10.30;;;;;;;10.38;100.00;99027.94;5172652;27;20057;-62
2022/10/25 07:14:39;;;;;;;31.00;12.25;;;;;;;10.76;100.00;99014.06;5174631;27;20441;-62
2022/10/25 07:17:05;;;;;;;68.63;21.25;;;;;;;10.21;100.00;99004.53;5174454;27;20089;-63
2022/10/25 07:19:31;;;;;;;35.70;11.40;;;;;;;10.19;100.00;98976.69;5174540;27;20113;-63
2022/10/25 07:21:58;;;;;;;42.53;12.57;;;;;;;10.29;100.00;98959.66;5174281;27;20046;-62
2022/10/25 07:24:24;;;;;;;40.08;12.00;;;;;;;10.14;100.00;98953.16;5174595;27;20046;-62
2022/10/25 07:26:51;;;;;;;33.40;12.18;;;;;;;10.28;100.00;98958.88;5174293;27;20050;-62
2022/10/25 07:29:17;;;;;;;71.68;23.20;;;;;;;10.35;100.00;98948.03;5174175;27;20056;-62
2022/10/25 07:31:44;;;;;;;42.22;14.57;;;;;;;10.44;100.00;98952.47;5174067;27;20517;-63
2022/10/25 07:34:12;;;;;;;190.43;52.50;;;;;;;10.27;100.00;98945.56;5174438;27;20129;-63
2022/10/25 07:36:38;;;;;;;73.57;23.15;;;;;;;10.17;100.00;98949.69;5174122;27;20046;-63
2022/10/25 07:39:05;;;;;;;53.42;19.23;;;;;;;10.44;100.00;98922.31;5173948;27;20050;-62
2022/10/25 07:41:31;;;;;;;46.45;16.55;;;;;;;10.14;100.00;98917.53;5174058;27;20615;-63
2022/10/25 07:43:58;;;;;;;32.85;11.88;;;;;;;10.45;100.00;98926.63;5173980;27;20102;-63
2022/10/25 07:46:24;;;;;;;52.65;19.88;;;;;;;10.31;100.00;98922.53;5174052;27;20057;-63
2022/10/25 07:48:51;;;;;;;50.00;20.40;;;;;;;10.18;100.00;98912.13;5174082;27;20351;-63
2022/10/25 07:51:18;;;;;;;65.78;21.60;;;;;;;10.11;100.00;98913.59;5174243;27;20061;-63
2022/10/25 07:53:44;;;;;;;130.70;35.17;;;;;;;10.19;100.00;98903.53;5173623;27;20410;-63
2022/10/25 07:56:12;;;;;;;36.97;15.85;;;;;;;10.14;100.00;98899.16;5174245;27;20050;-63
2022/10/25 07:58:39;;;;;;;32.10;14.38;;;;;;;10.30;100.00;98890.03;5173776;27;20462;-63
2022/10/25 08:01:08;;;;;;;63.50;25.48;;;;;;;10.74;100.00;98890.22;5173919;27;20058;-62
2022/10/25 08:03:34;;;;;;;85.90;31.85;;;;;;;10.50;100.00;98913.41;5173494;27;20524;-56
2022/10/25 08:06:01;;;;;;;58.53;14.52;;;;;;;10.53;100.00;98904.47;5173581;27;20046;-63
2022/10/25 08:08:28;;;;;;;77.50;16.50;;;;;;;10.93;100.00;98915.91;5173650;27;20053;-63
2022/10/25 08:10:55;;;;;;;61.92;23.80;;;;;;;10.81;100.00;98928.72;5173918;27;20162;-62
2022/10/25 08:13:22;;;;;;;37.72;16.95;;;;;;;11.06;100.00;98941.94;5173699;27;20458;-63
2022/10/25 08:15:52;;;;;;;63.17;17.48;;;;;;;10.71;100.00;98950.50;5173656;27;20465;-63
2022/10/25 08:18:19;;;;;;;67.72;17.88;;;;;;;11.00;100.00;98952.47;5173812;27;20042;-62
2022/10/25 08:20:45;;;;;;;74.60;22.58;;;;;;;11.16;100.00;98973.41;5173430;27;20576;-63
2022/10/25 08:23:12;;;;;;;43.13;19.50;;;;;;;10.80;100.00;99005.88;5173771;27;20088;-62
2022/10/25 08:25:38;;;;;;;73.88;27.92;;;;;;;11.04;100.00;98994.44;5173514;27;20058;-62
2022/10/25 08:28:04;;;;;;;76.10;22.17;;;;;;;10.91;100.00;99003.28;5173490;27;20057;-63
2022/10/25 08:30:31;;;;;;;82.07;37.17;;;;;;;11.20;100.00;98996.22;5173333;27;20046;-63
2022/10/25 08:32:57;;;;;;;83.00;26.70;;;;;;;11.34;100.00;99018.34;5173371;27;20085;-62
2022/10/25 08:35:24;;;;;;;61.40;27.63;;;;;;;11.33;100.00;99046.97;5173176;27;20046;-63
2022/10/25 08:37:50;;;;;;;54.83;27.40;;;;;;;11.52;100.00;99046.00;5173193;27;20137;-62
2022/10/25 08:40:18;;;;;;;109.28;43.20;;;;;;;11.47;100.00;99069.09;5173491;27;20054;-62
2022/10/25 08:43:00;;;;;;;49.28;24.08;;;;;;;11.53;100.00;99081.34;5173034;27;20100;-62
2022/10/25 08:45:33;;;;;;;56.38;25.63;;;;;;;11.78;100.00;99095.34;5173128;27;20046;-62
2022/10/25 08:48:01;;;;;;;46.22;14.52;;;;;;;11.56;100.00;99104.47;5172317;27;20046;-63
2022/10/25 08:50:36;;;;;;;28.45;12.85;;;;;;;11.89;100.00;99111.19;5173111;27;20046;-63
2022/10/25 08:53:08;;;;;;;61.20;13.10;;;;;;;11.68;100.00;99145.44;5173077;27;20141;-63
2022/10/25 08:55:36;;;;;;;49.97;13.57;;;;;;;11.50;100.00;99142.47;5173204;27;20103;-63
2022/10/25 08:58:06;;;;;;;39.42;14.98;;;;;;;11.90;100.00;99127.31;5173176;27;20424;-63
2022/10/25 09:00:39;;;;;;;37.50;12.98;;;;;;;12.02;100.00;99149.03;5172632;27;20054;-63
2022/10/25 09:03:13;;;;;;;46.58;12.07;;;;;;;11.69;100.00;99154.47;5172812;27;20050;-63
2022/10/25 09:05:44;;;;;;;27.58;11.48;;;;;;;11.76;100.00;99140.81;5172717;27;20514;-63
2022/10/25 09:08:34;;;;;;;32.05;11.85;;;;;;;11.60;100.00;99127.31;5173259;27;20736;-62
2022/10/25 09:11:08;;;;;;;24.92;11.95;;;;;;;12.03;100.00;99138.84;5172710;27;20474;-63
2022/10/25 09:13:50;;;;;;;35.33;13.32;;;;;;;12.05;100.00;99155.72;5172962;27;20042;-63
2022/10/25 09:16:18;;;;;;;54.38;14.38;;;;;;;12.01;100.00;99171.38;5172729;27;20076;-63
2022/10/25 09:18:48;;;;;;;55.17;18.45;;;;;;;11.65;100.00;99159.13;5172509;27;20145;-63
2022/10/25 09:21:20;;;;;;;50.10;16.92;;;;;;;11.43;100.00;99136.06;5172696;27;20071;-63
2022/10/25 09:23:58;;;;;;;44.83;15.32;;;;;;;11.28;100.00;99111.19;5172429;27;20060;-63
2022/10/25 09:26:37;;;;;;;39.88;15.90;;;;;;;11.71;100.00;99086.25;5172806;27;20046;-62
2022/10/25 09:29:11;;;;;;;58.15;14.95;;;;;;;11.34;100.00;99092.44;5172773;27;20042;-62
2022/10/25 09:31:43;;;;;;;82.47;15.98;;;;;;;11.12;100.00;99068.59;5172283;27;20202;-62
2022/10/25 09:34:11;;;;;;;31.42;13.90;;;;;;;11.54;100.00;99047.22;5172310;27;20060;-63
2022/10/25 09:36:44;;;;;;;41.80;14.30;;;;;;;11.67;100.00;99053.25;5172115;27;20061;-62
2022/10/25 09:39:18;;;;;;;63.40;13.18;;;;;;;11.16;100.00;99051.06;5172589;27;20370;-63
2022/10/25 09:41:48;;;;;;;28.45;13.38;;;;;;;11.13;100.00;99021.59;5172358;27;20413;-63
2022/10/25 09:44:23;;;;;;;176.02;47.55;;;;;;;11.37;100.00;98997.59;5172521;27;20508;-63
2022/10/25 09:46:55;;;;;;;74.18;22.92;;;;;;;11.33;100.00;98989.31;5172308;27;20050;-63
2022/10/25 09:49:28;;;;;;;77.70;27.88;;;;;;;11.30;100.00;98995.56;5172374;27;20053;-63
2022/10/25 09:52:04;;;;;;;286.57;98.67;;;;;;;11.41;100.00;99004.69;5172315;27;20042;-64
2022/10/25 09:54:35;;;;;;;89.22;22.30;;;;;;;11.06;100.00;99002.28;5172004;27;20517;-63
2022/10/25 09:57:02;;;;;;;91.85;30.92;;;;;;;11.22;100.00;98991.13;5172086;27;20075;-63
2022/10/25 09:59:29;;;;;;;102.78;19.75;;;;;;;11.07;100.00;98977.25;5170793;27;20056;-63
2022/10/25 10:01:55;;;;;;;93.22;20.23;;;;;;;10.83;100.00;98964.00;5172217;27;20093;-63
2022/10/25 10:04:25;;;;;;;59.95;24.80;;;;;;;11.19;100.00;98945.22;5171879;27;20133;-63
2022/10/25 10:06:55;;;;;;;55.75;21.35;;;;;;;11.04;100.00;98947.81;5172220;27;20095;-63
2022/10/25 10:09:27;;;;;;;102.05;28.98;;;;;;;11.16;100.00;98935.81;5171658;27;20146;-63
2022/10/25 10:11:54;;;;;;;51.53;20.38;;;;;;;11.25;100.00;98939.03;5171714;27;20106;-63
2022/10/25 10:14:29;;;;;;;45.67;16.52;;;;;;;11.10;100.00;98953.75;5171780;27;20046;-63
2022/10/25 10:16:58;;;;;;;40.95;19.20;;;;;;;11.47;100.00;98962.03;5171869;27;20056;-63
2022/10/25 10:19:28;;;;;;;48.90;17.13;;;;;;;11.57;100.00;98979.78;5171941;27;20111;-63
2022/10/25 10:21:56;;;;;;;74.72;26.30;;;;;;;11.58;100.00;98995.09;5171617;27;20068;-62
2022/10/25 10:24:27;;;;;;;82.97;36.05;;;;;;;11.61;100.00;99010.03;5171757;27;20050;-62
2022/10/25 10:26:56;;;;;;;56.70;22.73;;;;;;;11.29;100.00;99024.94;5171651;27;20056;-63
2022/10/25 10:29:25;;;;;;;50.33;19.90;;;;;;;11.58;100.00;99016.25;5171678;27;20043;-62
2022/10/25 10:31:53;;;;;;;87.57;20.92;;;;;;;11.23;100.00;99022.88;5171482;27;20046;-62
2022/10/25 10:34:23;;;;;;;54.03;18.52;;;;;;;10.90;100.00;98997.00;5171807;27;20500;-62
2022/10/25 10:37:05;;;;;;;45.15;19.80;;;;;;;11.26;100.00;98968.06;5171425;27;20057;-62
2022/10/25 10:39:33;;;;;;;51.63;18.48;;;;;;;11.19;100.00;98984.44;5171480;27;20057;-62
2022/10/25 10:42:02;;;;;;;89.72;21.35;;;;;;;11.12;100.00;98972.59;5171630;27;20042;-62
2022/10/25 10:44:29;;;;;;;54.40;19.88;;;;;;;11.48;100.00;98971.84;5171331;27;20046;-62
2022/10/25 10:46:56;;;;;;;69.97;21.83;;;;;;;11.38;100.00;98985.44;5171558;27;20462;-62
2022/10/25 10:49:35;;;;;;;93.65;24.90;;;;;;;11.66;100.00;98985.78;5171225;27;20046;-62
2022/10/25 10:52:02;;;;;;;100.25;22.55;;;;;;;11.23;100.00;98995.44;5171431;27;20531;-62
2022/10/25 10:54:32;;;;;;;102.13;20.50;;;;;;;10.90;100.00;98983.28;5171262;27;20050;-62
2022/10/25 10:57:01;;;;;;;81.72;20.15;;;;;;;11.13;100.00;98947.53;5171011;27;20046;-62
2022/10/25 10:59:44;;;;;;;60.47;20.05;;;;;;;11.33;100.00;98939.94;5171427;27;20058;-62
2022/10/25 11:02:28;;;;;;;83.53;18.45;;;;;;;10.98;100.00;98934.78;5171378;27;20478;-62
2022/10/25 11:04:56;;;;;;;51.15;19.00;;;;;;;11.16;100.00;98908.38;5171386;27;20046;-62
2022/10/25 11:07:29;;;;;;;50.22;21.35;;;;;;;11.32;100.00;98928.13;5171140;27;20042;-62
2022/10/25 11:10:24;;;;;;;99.07;26.05;;;;;;;11.38;100.00;98931.34;5171499;27;20046;-62
2022/10/25 11:13:14;;;;;;;95.07;20.77;;;;;;;11.37;100.00;98950.94;5174499;27;20496;-62
2022/10/25 11:16:07;;;;;;;51.38;20.63;;;;;;;11.16;100.00;98956.94;5174673;27;20081;-62
2022/10/25 11:18:44;;;;;;;52.63;19.58;;;;;;;11.41;100.00;98944.31;5174442;27;20105;-62
2022/10/25 11:21:20;;;;;;;48.90;19.77;;;;;;;11.55;100.00;98946.41;5174740;27;20050;-62
2022/10/25 11:24:01;;;;;;;45.30;18.50;;;;;;;11.60;100.00;98956.28;5174409;27;20061;-62